DATA ZE ZPRÁV METAR

Zprávy METAR jsou pravidelné letecké meteorologické zprávy o podmínkách na daném letišti, zejména o stavu oblačnosti, viditelnosti a průběhu počasí v poslední hodině. Na letištích s pravidelným provozem jsou vydávány každých 30 minut, jinak zpravidla jednou za hodinu. Ne každé letiště (zejména komerční) poskytuje zprávy po celých 24 hodin denně. Více o zprávách METAR najdete na této stránce.

Zprávy METAR z letišť v blízkém okolí

LKPR - Praha Ruzyně, Česká republika
Směr a vzdálenost od této stanice: ZJZ 98km
Aktualizováno: 23.10.2018 05:00
Skoro zataženo
Skoro zataženo
 Vítr ze směru ZJZ
Vítr: ZJZ 15 km/h
Teplota: 6°C
Chlad větru: 3°C
Rosný bod: 3°C
Vlhkost: 81%
Tlak vzduchu: 1026 hPa
Oblačnost: Skoro zataženo
Dohlednost: 10 km
Detaily oblačnosti: Skoro zataženo 1158 m
2018/10/23 03:00 LKPR 230300Z 24008KT 9999 BKN038 06/03 Q1026 NOSIG
LKTB - Brno Tuřany, Česká republika
Směr a vzdálenost od této stanice: JJV 174km
Aktualizováno: 23.10.2018 05:00
Zataženo
Zataženo
 Vítr ze směru SSZ
Vítr: SSZ 7 km/h
Teplota: 9°C
Chlad větru: 8°C
Rosný bod: 5°C
Vlhkost: 76%
Tlak vzduchu: 1026 hPa
Oblačnost: Zataženo
Dohlednost: 10 km
Detaily oblačnosti: Polojasno 671 m
Zataženo 1372 m
2018/10/23 03:00 LKTB 230300Z 33004KT 9999 SCT022 OVC045 09/05 Q1026 NOSIG
 
LKKV - Karlovy Vary, Česká republika
Směr a vzdálenost od této stanice: Z 187km
Aktualizováno: 23.10.2018 05:00
Skoro zataženo
Skoro zataženo
 Vítr ze směru ZJZ
Vítr: ZJZ 11 km/h
Teplota: 4°C
Chlad větru: 1°C
Rosný bod: 3°C
Vlhkost: 93%
Tlak vzduchu: 1026 hPa
Oblačnost: Skoro zataženo
Dohlednost: 9 km
Detaily oblačnosti: Skoro zataženo 91 m
Skoro zataženo 792 m
2018/10/23 03:00 LKKV 230300Z 25006KT 210V280 9000 BKN003 BKN026 04/03 Q1026
LKMT - Ostrava Mošnov, Česká republika
Směr a vzdálenost od této stanice: VJV 208km
Aktualizováno: 23.10.2018 05:00
Zataženo
Zataženo
 Vítr ze směru Bezvětří
Vítr: Bezvětří
Teplota: 7°C
Rosný bod: 5°C
Vlhkost: 87%
Tlak vzduchu: 1025 hPa
Oblačnost: Zataženo
Dohlednost: 10 km
Detaily oblačnosti: Skoro jasno 488 m
Zataženo 1494 m
2018/10/23 03:00 LKMT 230300Z 00000KT 9999 FEW016 OVC049 07/05 Q1025 NOSIG
 
LKPD - Pardubice, Česká republika
Směr a vzdálenost od této stanice: JJV 56km
Aktualizováno: 23.10.2018 05:00
Jasno, Jasná obloha
Jasno, Jasná obloha
 Vítr ze směru ZJZ
Vítr: ZJZ 7 km/h
Teplota: 5°C
Chlad větru: 3°C
Rosný bod: 3°C
Vlhkost: 87%
Tlak vzduchu: 1026 hPa
Stav počasí: Jasno
Oblačnost: Jasná obloha
Dohlednost: více než 10 km
2018/10/23 03:00 LKPD 230300Z 25004KT CAVOK 05/03 Q1026
LKKB - Praha Kbely, Česká republika
Směr a vzdálenost od této stanice: ZJZ 81km
Aktualizováno: 23.10.2018 05:00
Zataženo
Zataženo
 Vítr ze směru JZ
Vítr: JZ 13 km/h
Teplota: 6°C
Chlad větru: 3°C
Rosný bod: 3°C
Vlhkost: 81%
Tlak vzduchu: 1026 hPa
Oblačnost: Zataženo
Dohlednost: 10 km
Detaily oblačnosti: Skoro zataženo 1006 m
Zataženo 1280 m
2018/10/23 03:00 LKKB 230300Z 22007KT 9999 BKN033 OVC042 06/03 Q1026 NOSIG
 
LKCV - Čáslav, Česká republika
Směr a vzdálenost od této stanice: J 63km
Aktualizováno: 23.10.2018 05:00
Jasno, Jasná obloha
Jasno, Jasná obloha
 Vítr ze směru Z
Vítr: Z 11 km/h
Teplota: 4°C
Chlad větru: 1°C
Rosný bod: 3°C
Vlhkost: 93%
Tlak vzduchu: 1026 hPa
Stav počasí: Jasno
Oblačnost: Jasná obloha
Dohlednost: více než 10 km
2018/10/23 03:00 LKCV 230300Z 27006KT CAVOK 04/03 Q1026 NOSIG
LKNA - Náměšť n. Osl., Česká republika
Směr a vzdálenost od této stanice: JJV 154km
Aktualizováno: 23.10.2018 05:00
Zataženo
Zataženo
 Vítr ze směru SZ
Vítr: SZ 13 km/h
Teplota: 6°C
Chlad větru: 3°C
Rosný bod: 2°C
Vlhkost: 76%
Tlak vzduchu: 1025 hPa
Oblačnost: Zataženo
Dohlednost: 10 km
Detaily oblačnosti: Zataženo 1067 m
2018/10/23 03:00 LKNA 230300Z 32007KT 9999 OVC035 06/02 Q1025
 
LKLN - Plzeň Líně, Česká republika
Směr a vzdálenost od této stanice: ZJZ 184km
Aktualizováno: 23.10.2018 05:00
Skoro zataženo
Skoro zataženo
 Vítr ze směru Z
Vítr: Z 6 km/h
Teplota: 4°C
Rosný bod: 3°C
Vlhkost: 93%
Tlak vzduchu: 1028 hPa
Oblačnost: Skoro zataženo
Dohlednost: 10 km
Detaily oblačnosti: Skoro zataženo 1189 m
2018/10/23 03:00 LKLN 230300Z AUTO 28003KT 240V320 9999 BKN039 04/03 Q1028
EDDC - Dresden Klotzsch, Německo
Směr a vzdálenost od této stanice: ZSZ 142km
Aktualizováno: 23.10.2018 04:50
Skoro jasno
Skoro jasno
 Vítr ze směru ZJZ
Vítr: ZJZ 9 km/h
Teplota: 5°C
Chlad větru: 3°C
Rosný bod: 4°C
Vlhkost: 93%
Tlak vzduchu: 1025 hPa
Oblačnost: Skoro jasno
Dohlednost: 10 km
Detaily oblačnosti: Skoro jasno 1372 m
2018/10/23 02:50 EDDC 230250Z 24005KT 9999 FEW045 05/04 Q1025